createdAt,value
2023-03-07T00:02:37.610Z,94875.75
2023-03-07T00:05:23.321Z,94882.59
2023-03-07T00:08:09.568Z,94894.53
2023-03-07T00:10:55.924Z,94893.31
2023-03-07T00:13:42.068Z,94887.09
2023-03-07T00:16:27.975Z,94890.81
2023-03-07T00:19:14.154Z,94890.84
2023-03-07T00:21:59.949Z,94894.69
2023-03-07T00:24:48.628Z,94856.59
2023-03-07T00:27:35.299Z,94873.09
2023-03-07T00:30:21.184Z,94877.56
2023-03-07T00:33:08.008Z,94888.91
2023-03-07T00:36:02.658Z,94874.06
2023-03-07T00:38:56.187Z,94868.53
2023-03-07T00:41:42.225Z,94864.63
2023-03-07T00:44:30.153Z,94843.84
2023-03-07T00:47:15.946Z,94860.31
2023-03-07T00:50:02.322Z,94846.31
2023-03-07T00:52:48.128Z,94860.34
2023-03-07T00:55:34.024Z,94849.81
2023-03-07T00:58:20.684Z,94847.34
2023-03-07T01:01:12.833Z,94853.78
2023-03-07T01:03:59.619Z,94848.19
2023-03-07T01:06:45.408Z,94828.66
2023-03-07T01:09:31.362Z,94836.72
2023-03-07T01:12:17.602Z,94811.81
2023-03-07T01:15:05.425Z,94837.78
2023-03-07T01:17:51.886Z,94825.44
2023-03-07T01:20:38.998Z,94824.22
2023-03-07T01:23:24.963Z,94829.97
2023-03-07T01:26:20.330Z,94823.31
2023-03-07T01:29:17.697Z,94838.00
2023-03-07T01:32:04.080Z,94825.63
2023-03-07T01:34:50.221Z,94820.47
2023-03-07T01:37:36.979Z,94813.88
2023-03-07T01:40:25.166Z,94827.69
2023-03-07T01:43:23.249Z,94825.25
2023-03-07T01:46:18.637Z,94786.34
2023-03-07T01:49:21.403Z,94816.81
2023-03-07T01:52:14.260Z,94793.75
2023-03-07T01:55:28.607Z,94796.19
2023-03-07T01:58:19.740Z,94792.78
2023-03-07T02:01:08.958Z,94795.00
2023-03-07T02:04:11.024Z,94799.25
2023-03-07T02:06:57.012Z,94792.88
2023-03-07T02:09:44.556Z,94795.13
2023-03-07T02:12:30.541Z,94797.41
2023-03-07T02:15:16.767Z,94798.22
2023-03-07T02:18:03.665Z,94810.75
2023-03-07T02:21:20.909Z,94809.50
2023-03-07T02:24:32.735Z,94797.38
2023-03-07T02:27:18.968Z,94779.91
2023-03-07T02:30:05.709Z,94781.94
2023-03-07T02:32:51.527Z,94784.22
2023-03-07T02:35:37.345Z,94778.22
2023-03-07T02:38:26.696Z,94785.81
2023-03-07T02:41:13.256Z,94787.06
2023-03-07T02:44:00.300Z,94803.66
2023-03-07T02:46:46.854Z,94780.47
2023-03-07T02:49:32.890Z,94763.63
2023-03-07T02:52:20.299Z,94770.97
2023-03-07T02:55:07.711Z,94754.56
2023-03-07T02:57:56.721Z,94769.56
2023-03-07T03:00:42.731Z,94771.03
2023-03-07T03:03:28.590Z,94775.13
2023-03-07T03:06:14.503Z,94757.84
2023-03-07T03:09:00.730Z,94781.50
2023-03-07T03:11:46.791Z,94770.63
2023-03-07T03:14:33.653Z,94769.78
2023-03-07T03:17:19.313Z,94762.63
2023-03-07T03:20:11.784Z,94770.81
2023-03-07T03:22:57.790Z,94771.41
2023-03-07T03:25:43.641Z,94768.56
2023-03-07T03:28:30.030Z,94773.91
2023-03-07T03:31:16.362Z,94747.56
2023-03-07T03:34:02.334Z,94760.13
2023-03-07T03:36:49.291Z,94749.28
2023-03-07T03:39:36.009Z,94755.22
2023-03-07T03:42:22.984Z,94759.31
2023-03-07T03:45:10.399Z,94755.81
2023-03-07T03:47:56.391Z,94758.28
2023-03-07T03:50:42.206Z,94760.28
2023-03-07T03:53:28.197Z,94742.00
2023-03-07T03:56:17.294Z,94762.78
2023-03-07T03:59:03.676Z,94761.34
2023-03-07T04:01:50.919Z,94764.81
2023-03-07T04:04:38.278Z,94759.47
2023-03-07T04:07:25.262Z,94766.44
2023-03-07T04:10:11.627Z,94766.50
2023-03-07T04:12:57.933Z,94762.31
2023-03-07T04:15:44.029Z,94762.13
2023-03-07T04:18:30.238Z,94767.09
2023-03-07T04:21:16.064Z,94761.94
2023-03-07T04:24:01.858Z,94769.16
2023-03-07T04:26:50.132Z,94759.09
2023-03-07T04:29:35.881Z,94770.16
2023-03-07T04:32:40.207Z,94755.56
2023-03-07T04:35:25.952Z,94771.41
2023-03-07T04:38:14.459Z,94766.88
2023-03-07T04:41:00.097Z,94767.47
2023-03-07T04:43:47.078Z,94765.63
2023-03-07T04:46:32.833Z,94774.47
2023-03-07T04:49:18.754Z,94765.84
2023-03-07T04:52:05.597Z,94757.41
2023-03-07T04:54:51.870Z,94752.06
2023-03-07T04:57:38.055Z,94775.09
2023-03-07T05:00:25.069Z,94774.25
2023-03-07T05:03:12.536Z,94776.09
2023-03-07T05:06:05.415Z,94769.72
2023-03-07T05:08:51.783Z,94767.28
2023-03-07T05:11:37.684Z,94774.66
2023-03-07T05:14:24.073Z,94767.41
2023-03-07T05:17:10.839Z,94774.81
2023-03-07T05:19:56.814Z,94755.84
2023-03-07T05:22:43.261Z,94774.19
2023-03-07T05:25:29.329Z,94780.16
2023-03-07T05:28:16.988Z,94765.13
2023-03-07T05:31:03.096Z,94779.13
2023-03-07T05:33:49.949Z,94776.47
2023-03-07T05:36:35.745Z,94778.31
2023-03-07T05:39:22.996Z,94776.69
2023-03-07T05:42:09.646Z,94786.16
2023-03-07T05:44:56.612Z,94790.06
2023-03-07T05:47:43.077Z,94800.56
2023-03-07T05:50:31.780Z,94794.63
2023-03-07T05:53:17.850Z,94788.25
2023-03-07T05:56:04.999Z,94784.53
2023-03-07T05:58:51.817Z,94790.75
2023-03-07T06:01:38.390Z,94795.66
2023-03-07T06:04:24.390Z,94787.44
2023-03-07T06:07:10.343Z,94751.84
2023-03-07T06:09:56.097Z,94787.06
2023-03-07T06:12:41.914Z,94785.81
2023-03-07T06:15:27.969Z,94791.16
2023-03-07T06:18:21.759Z,94796.91
2023-03-07T06:21:09.068Z,94795.88
2023-03-07T06:24:00.174Z,94800.41
2023-03-07T06:26:45.916Z,94794.25
2023-03-07T06:29:32.940Z,94795.28
2023-03-07T06:32:19.166Z,94808.25
2023-03-07T06:35:05.479Z,94800.25
2023-03-07T06:37:52.102Z,94812.56
2023-03-07T06:40:38.181Z,94810.72
2023-03-07T06:43:24.050Z,94813.00
2023-03-07T06:46:10.640Z,94807.66
2023-03-07T06:48:59.846Z,94807.22
2023-03-07T06:51:56.535Z,94828.22
2023-03-07T06:54:42.245Z,94809.94
2023-03-07T06:57:28.118Z,94824.94
2023-03-07T07:00:15.240Z,94822.50
2023-03-07T07:03:01.433Z,94828.88
2023-03-07T07:05:47.221Z,94807.88
2023-03-07T07:08:33.620Z,94823.13
2023-03-07T07:11:19.318Z,94823.75
2023-03-07T07:14:05.865Z,94823.81
2023-03-07T07:16:52.351Z,94813.94
2023-03-07T07:19:38.776Z,94826.84
2023-03-07T07:22:24.888Z,94831.63
2023-03-07T07:25:11.290Z,94814.94
2023-03-07T07:27:57.024Z,94828.75
2023-03-07T07:30:43.321Z,94830.63
2023-03-07T07:33:32.032Z,94819.53
2023-03-07T07:36:18.070Z,94813.94
2023-03-07T07:39:07.801Z,94823.84
2023-03-07T07:41:56.412Z,94831.47
2023-03-07T07:44:47.047Z,94833.53
2023-03-07T07:47:34.114Z,94831.25
2023-03-07T07:50:21.409Z,94832.09
2023-03-07T07:53:07.264Z,94829.22
2023-03-07T07:55:53.569Z,94839.69
2023-03-07T07:58:40.703Z,94835.81
2023-03-07T08:01:26.817Z,94832.69
2023-03-07T08:04:12.656Z,94827.56
2023-03-07T08:06:58.582Z,94834.78
2023-03-07T08:09:44.379Z,94826.75
2023-03-07T08:12:30.202Z,94841.59
2023-03-07T08:15:17.175Z,94837.66
2023-03-07T08:18:02.895Z,94839.53
2023-03-07T08:20:48.783Z,94835.38
2023-03-07T08:23:35.908Z,94818.94
2023-03-07T08:26:21.812Z,94840.72
2023-03-07T08:29:07.870Z,94815.81
2023-03-07T08:31:54.485Z,94836.16
2023-03-07T08:34:40.228Z,94834.91
2023-03-07T08:37:26.131Z,94834.94
2023-03-07T08:40:13.373Z,94825.44
2023-03-07T08:42:59.691Z,94837.56
2023-03-07T08:45:45.477Z,94841.03
2023-03-07T08:48:31.430Z,94837.94
2023-03-07T08:51:18.224Z,94835.28
2023-03-07T08:54:04.940Z,94811.59
2023-03-07T08:56:50.821Z,94834.00
2023-03-07T08:59:36.621Z,94806.63
2023-03-07T09:02:22.475Z,94822.88
2023-03-07T09:05:08.625Z,94820.78
2023-03-07T09:07:54.705Z,94805.75
2023-03-07T09:10:40.510Z,94801.44
2023-03-07T09:13:26.667Z,94811.06
2023-03-07T09:16:12.536Z,94815.78
2023-03-07T09:18:58.200Z,94809.59
2023-03-07T09:21:44.102Z,94795.63
2023-03-07T09:24:30.432Z,94820.06
2023-03-07T09:27:16.201Z,94818.59
2023-03-07T09:30:02.320Z,94819.59
2023-03-07T09:32:49.257Z,94817.66
2023-03-07T09:35:35.383Z,94815.13
2023-03-07T09:38:21.163Z,94809.59
2023-03-07T09:41:06.879Z,94813.84
2023-03-07T09:44:13.012Z,94817.81
2023-03-07T09:47:40.378Z,94818.56
2023-03-07T09:50:39.510Z,94816.66
2023-03-07T09:54:06.111Z,94819.28
2023-03-07T09:57:02.764Z,94806.44
2023-03-07T09:59:53.801Z,94808.63
2023-03-07T10:03:06.340Z,94798.31
2023-03-07T10:05:54.555Z,94786.41
2023-03-07T10:08:40.884Z,94788.00
2023-03-07T10:11:38.388Z,94781.59
2023-03-07T10:14:50.048Z,94779.06
2023-03-07T10:18:04.538Z,94769.78
2023-03-07T10:21:21.686Z,94762.78
2023-03-07T10:24:08.097Z,94760.56
2023-03-07T10:27:09.791Z,94757.66
2023-03-07T10:29:56.807Z,94752.31
2023-03-07T10:32:48.436Z,94752.94
2023-03-07T10:35:41.963Z,94755.34
2023-03-07T10:38:39.926Z,94738.44
2023-03-07T10:41:27.185Z,94758.31
2023-03-07T10:44:19.124Z,94751.44
2023-03-07T10:47:05.449Z,94745.44
2023-03-07T10:49:54.971Z,94748.25
2023-03-07T10:52:55.852Z,94750.38
2023-03-07T10:55:44.372Z,94747.53
2023-03-07T10:58:31.052Z,94742.72
2023-03-07T11:01:18.841Z,94746.16
2023-03-07T11:04:07.323Z,94741.94
2023-03-07T11:06:55.700Z,94740.53
2023-03-07T11:09:48.170Z,94735.41
2023-03-07T11:12:45.359Z,94738.47
2023-03-07T11:15:31.333Z,94731.03
2023-03-07T11:18:30.273Z,94722.94
2023-03-07T11:21:30.434Z,94719.69
2023-03-07T11:24:37.785Z,94717.25
2023-03-07T11:27:39.685Z,94717.97
2023-03-07T11:30:42.673Z,94715.88
2023-03-07T11:33:35.388Z,94702.88
2023-03-07T11:36:31.070Z,94707.47
2023-03-07T11:39:29.056Z,94699.31
2023-03-07T11:42:26.428Z,94694.25
2023-03-07T11:45:28.009Z,94680.81
2023-03-07T11:48:22.777Z,94670.69
2023-03-07T11:51:26.680Z,94672.94
2023-03-07T11:54:21.587Z,94673.66
2023-03-07T11:57:26.545Z,94670.72
2023-03-07T12:00:38.966Z,94665.94
2023-03-07T12:03:42.785Z,94664.13
2023-03-07T12:07:05.191Z,94648.09
2023-03-07T12:10:05.970Z,94656.16
2023-03-07T12:13:24.778Z,94648.50
2023-03-07T12:16:29.449Z,94644.44
2023-03-07T12:19:38.414Z,94643.63
2023-03-07T12:22:29.784Z,94650.00
2023-03-07T12:25:19.690Z,94650.91
2023-03-07T12:28:20.732Z,94649.06
2023-03-07T12:31:17.733Z,94655.38
2023-03-07T12:34:06.734Z,94650.91
2023-03-07T12:36:57.279Z,94632.88
2023-03-07T12:39:54.357Z,94637.34
2023-03-07T12:43:12.922Z,94638.16
2023-03-07T12:46:09.431Z,94619.88
2023-03-07T12:49:01.262Z,94649.59
2023-03-07T12:51:56.121Z,94637.56
2023-03-07T12:54:46.231Z,94625.25
2023-03-07T12:57:35.238Z,94637.44
2023-03-07T13:00:22.994Z,94643.19
2023-03-07T13:03:11.723Z,94645.63
2023-03-07T13:05:58.136Z,94639.31
2023-03-07T13:08:47.825Z,94638.81
2023-03-07T13:11:34.612Z,94633.50
2023-03-07T13:14:43.156Z,94638.75
2023-03-07T13:17:35.123Z,94637.44
2023-03-07T13:20:41.738Z,94640.97
2023-03-07T13:23:28.565Z,94645.06
2023-03-07T13:26:23.299Z,94627.66
2023-03-07T13:29:09.202Z,94646.25
2023-03-07T13:31:55.086Z,94641.78
2023-03-07T13:34:46.675Z,94638.03
2023-03-07T13:37:51.384Z,94635.25
2023-03-07T13:40:37.163Z,94639.13
2023-03-07T13:43:24.119Z,94621.34
2023-03-07T13:46:45.794Z,94625.56
2023-03-07T13:49:36.989Z,94608.56
2023-03-07T13:52:23.147Z,94621.44
2023-03-07T13:55:19.743Z,94619.00
2023-03-07T13:58:16.616Z,94619.44
2023-03-07T14:01:17.819Z,94615.34
2023-03-07T14:04:14.047Z,94597.81
2023-03-07T14:07:05.572Z,94620.63
2023-03-07T14:10:21.473Z,94607.88
2023-03-07T14:13:14.106Z,94612.19
2023-03-07T14:16:15.332Z,94609.19
2023-03-07T14:19:10.252Z,94604.50
2023-03-07T14:22:13.070Z,94568.78
2023-03-07T14:25:18.231Z,94589.06
2023-03-07T14:28:22.652Z,94599.81
2023-03-07T14:31:23.372Z,94600.63
2023-03-07T14:34:21.383Z,94612.78
2023-03-07T14:37:20.677Z,94590.09
2023-03-07T14:40:26.891Z,94605.88
2023-03-07T14:43:28.715Z,94609.03
2023-03-07T14:46:20.937Z,94603.53
2023-03-07T14:49:43.198Z,94599.94
2023-03-07T14:52:31.790Z,94597.91
2023-03-07T14:55:23.164Z,94607.72
2023-03-07T14:58:19.786Z,94586.59
2023-03-07T15:01:12.421Z,94603.16
2023-03-07T15:03:58.270Z,94586.19
2023-03-07T15:06:44.445Z,94590.63
2023-03-07T15:09:32.373Z,94596.13
2023-03-07T15:12:25.847Z,94601.09
2023-03-07T15:15:23.028Z,94598.19
2023-03-07T15:18:20.553Z,94599.00
2023-03-07T15:21:07.801Z,94600.88
2023-03-07T15:23:55.657Z,94607.81
2023-03-07T15:26:49.312Z,94593.16
2023-03-07T15:29:35.329Z,94596.69
2023-03-07T15:32:39.113Z,94593.78
2023-03-07T15:35:27.187Z,94602.16
2023-03-07T15:38:21.578Z,94596.06
2023-03-07T15:41:30.402Z,94586.00
2023-03-07T15:44:18.357Z,94605.94
2023-03-07T15:47:14.483Z,94593.88
2023-03-07T15:50:05.050Z,94586.06
2023-03-07T15:52:53.777Z,94599.50
2023-03-07T15:55:40.332Z,94591.06
2023-03-07T15:58:27.724Z,94599.16
2023-03-07T16:01:25.413Z,94602.56
2023-03-07T16:04:36.359Z,94607.69
2023-03-07T16:07:22.204Z,94602.88
2023-03-07T16:10:08.262Z,94611.44
2023-03-07T16:12:54.816Z,94600.47
2023-03-07T16:15:41.755Z,94612.00
2023-03-07T16:18:30.022Z,94603.16
2023-03-07T16:21:18.171Z,94617.16
2023-03-07T16:24:05.162Z,94596.13
2023-03-07T16:26:52.385Z,94619.91
2023-03-07T16:29:39.655Z,94597.09
2023-03-07T16:32:27.120Z,94615.00
2023-03-07T16:35:21.944Z,94616.19
2023-03-07T16:38:08.403Z,94617.94
2023-03-07T16:40:54.512Z,94620.75
2023-03-07T16:43:40.437Z,94633.00
2023-03-07T16:46:26.701Z,94629.56
2023-03-07T16:49:20.090Z,94613.88
2023-03-07T16:52:06.860Z,94618.56
2023-03-07T16:54:52.529Z,94631.22
2023-03-07T16:57:38.733Z,94630.28
2023-03-07T17:00:26.163Z,94636.47
2023-03-07T17:03:12.142Z,94643.09
2023-03-07T17:05:58.086Z,94643.59
2023-03-07T17:08:44.804Z,94641.34
2023-03-07T17:11:30.828Z,94650.59
2023-03-07T17:14:17.440Z,94660.84
2023-03-07T17:17:04.492Z,94665.88
2023-03-07T17:19:50.797Z,94653.47
2023-03-07T17:22:37.324Z,94662.72
2023-03-07T17:25:23.772Z,94651.78
2023-03-07T17:28:14.314Z,94659.47
2023-03-07T17:31:00.288Z,94672.59
2023-03-07T17:33:46.502Z,94684.41
2023-03-07T17:36:32.620Z,94665.31
2023-03-07T17:39:18.765Z,94668.00
2023-03-07T17:42:05.175Z,94660.13
2023-03-07T17:44:51.341Z,94653.00
2023-03-07T17:47:37.550Z,94655.91
2023-03-07T17:50:24.100Z,94670.41
2023-03-07T17:53:09.884Z,94673.31
2023-03-07T17:55:56.116Z,94649.53
2023-03-07T17:58:42.741Z,94678.28
2023-03-07T18:01:29.797Z,94672.44
2023-03-07T18:04:15.736Z,94667.38
2023-03-07T18:07:01.545Z,94656.09
2023-03-07T18:09:53.639Z,94680.19
2023-03-07T18:12:50.020Z,94677.44
2023-03-07T18:15:35.773Z,94671.84
2023-03-07T18:18:22.047Z,94687.75
2023-03-07T18:21:11.969Z,94674.16
2023-03-07T18:23:57.873Z,94689.25
2023-03-07T18:26:44.068Z,94674.13
2023-03-07T18:29:30.806Z,94658.16
2023-03-07T18:32:17.195Z,94674.19
2023-03-07T18:35:04.335Z,94685.06
2023-03-07T18:37:50.154Z,94672.41
2023-03-07T18:40:36.107Z,94696.72
2023-03-07T18:43:22.004Z,94687.75
2023-03-07T18:46:10.668Z,94688.13
2023-03-07T18:48:57.741Z,94693.13
2023-03-07T18:51:46.076Z,94681.53
2023-03-07T18:54:32.404Z,94704.00
2023-03-07T18:57:18.430Z,94697.63
2023-03-07T19:00:05.658Z,94708.13
2023-03-07T19:02:51.914Z,94702.78
2023-03-07T19:05:45.704Z,94702.00
2023-03-07T19:08:31.709Z,94698.16
2023-03-07T19:11:17.742Z,94676.97
2023-03-07T19:14:04.025Z,94697.34
2023-03-07T19:16:50.175Z,94706.84
2023-03-07T19:19:36.655Z,94702.94
2023-03-07T19:22:27.472Z,94706.06
2023-03-07T19:25:13.957Z,94704.41
2023-03-07T19:27:59.926Z,94709.81
2023-03-07T19:30:46.075Z,94702.81
2023-03-07T19:33:32.401Z,94695.09
2023-03-07T19:36:27.406Z,94691.19
2023-03-07T19:39:20.665Z,94697.78
2023-03-07T19:42:07.042Z,94709.31
2023-03-07T19:44:54.689Z,94713.03
2023-03-07T19:47:41.259Z,94712.88
2023-03-07T19:50:27.697Z,94707.34
2023-03-07T19:53:15.019Z,94715.59
2023-03-07T19:56:10.901Z,94718.06
2023-03-07T19:58:59.198Z,94719.13
2023-03-07T20:01:46.733Z,94710.56
2023-03-07T20:04:33.060Z,94701.09
2023-03-07T20:07:19.091Z,94706.44
2023-03-07T20:10:05.760Z,94719.84
2023-03-07T20:12:53.100Z,94727.28
2023-03-07T20:15:39.578Z,94720.91
2023-03-07T20:18:25.708Z,94721.34
2023-03-07T20:21:14.030Z,94736.78
2023-03-07T20:24:00.424Z,94696.94
2023-03-07T20:26:48.196Z,94730.22
2023-03-07T20:29:34.971Z,94727.75
2023-03-07T20:32:20.956Z,94735.59
2023-03-07T20:35:07.570Z,94727.56
2023-03-07T20:37:53.793Z,94733.94
2023-03-07T20:40:40.100Z,94718.13
2023-03-07T20:43:26.429Z,94710.72
2023-03-07T20:46:14.282Z,94730.47
2023-03-07T20:49:03.307Z,94714.41
2023-03-07T20:51:52.201Z,94719.59
2023-03-07T20:54:39.073Z,94727.44
2023-03-07T20:57:25.785Z,94733.41
2023-03-07T21:00:13.918Z,94743.69
2023-03-07T21:03:05.976Z,94744.13
2023-03-07T21:06:00.159Z,94739.41
2023-03-07T21:08:47.726Z,94733.22
2023-03-07T21:11:35.222Z,94731.19
2023-03-07T21:14:21.236Z,94743.75
2023-03-07T21:17:09.535Z,94740.28
2023-03-07T21:19:55.905Z,94744.81
2023-03-07T21:22:42.735Z,94746.25
2023-03-07T21:25:29.940Z,94738.44
2023-03-07T21:28:16.463Z,94751.19
2023-03-07T21:31:07.461Z,94741.09
2023-03-07T21:33:56.040Z,94724.66
2023-03-07T21:36:42.752Z,94747.72
2023-03-07T21:39:29.706Z,94752.03
2023-03-07T21:42:16.547Z,94763.97
2023-03-07T21:45:03.101Z,94761.28
2023-03-07T21:47:53.378Z,94759.44
2023-03-07T21:50:44.093Z,94773.25
2023-03-07T21:53:30.689Z,94763.13
2023-03-07T21:56:17.985Z,94750.81
2023-03-07T21:59:03.984Z,94760.25
2023-03-07T22:01:49.876Z,94764.81
2023-03-07T22:04:35.796Z,94765.84
2023-03-07T22:07:21.876Z,94756.38
2023-03-07T22:10:08.903Z,94764.19
2023-03-07T22:12:54.772Z,94745.69
2023-03-07T22:15:40.549Z,94753.28
2023-03-07T22:18:27.082Z,94759.88
2023-03-07T22:21:14.449Z,94761.13
2023-03-07T22:24:01.311Z,94763.78
2023-03-07T22:26:47.522Z,94757.22
2023-03-07T22:29:33.387Z,94753.91
2023-03-07T22:32:19.252Z,94772.84
2023-03-07T22:35:05.400Z,94777.16
2023-03-07T22:37:51.638Z,94761.09
2023-03-07T22:40:39.351Z,94780.25
2023-03-07T22:43:25.493Z,94791.16
2023-03-07T22:46:14.522Z,94783.13
2023-03-07T22:49:00.567Z,94785.59
2023-03-07T22:51:46.450Z,94790.13
2023-03-07T22:54:33.479Z,94771.16
2023-03-07T22:57:19.475Z,94791.34
2023-03-07T23:00:06.375Z,94799.78
2023-03-07T23:02:54.279Z,94801.00
2023-03-07T23:05:41.677Z,94805.13
2023-03-07T23:08:27.911Z,94785.16
2023-03-07T23:11:14.563Z,94809.22
2023-03-07T23:14:00.367Z,94797.91
2023-03-07T23:16:46.352Z,94812.31
2023-03-07T23:19:32.092Z,94804.06
2023-03-07T23:22:18.052Z,94793.38
2023-03-07T23:25:05.149Z,94801.75
2023-03-07T23:27:51.166Z,94829.16
2023-03-07T23:30:38.543Z,94825.25
2023-03-07T23:33:24.932Z,94820.94
2023-03-07T23:36:12.828Z,94834.91
2023-03-07T23:38:59.292Z,94848.47
2023-03-07T23:41:45.118Z,94842.06
2023-03-07T23:44:30.837Z,94840.59
2023-03-07T23:47:16.861Z,94838.53
2023-03-07T23:50:02.982Z,94857.88
2023-03-07T23:52:49.254Z,94842.63
2023-03-07T23:55:35.144Z,94824.28
2023-03-07T23:58:21.034Z,94849.16
